Terminal Aerodrome Forecast
Issued by NWS

Home | Current Version | Previous Version | Text Only | Print | Product List | Glossary On
Versions: 1 2 3 4 5 6 7 8 9 10 11 12 13
000
FTUS45 KABQ 261100
TAFLVS
TAF
KLVS 261131Z 2612/2712 17009KT P6SM BKN250
     FM261700 21011KT P6SM BKN250
      TEMPO 2619/2623 21011G21KT
     FM270200 30006KT P6SM BKN250=

USA.gov is the U.S. government's official web portal to all federal, state and local government web resources and services.